Time,TemperatureF,DewpointF,PressureIn,WindDirection,WindDirectionDegrees,WindSpeedMPH,WindSpeedGustMPH,Humidity,HourlyPrecipIn,Conditions,Clouds,dailyrainin,SoftwareType,DateUTC
2013-08-12 00:00:00,65.9,62.6,29.99,North,355,0.0,0.0,89,0.00,,,0.00,Weather View 32 v70,2013-08-12 04:00:00,
2013-08-12 00:01:00,65.9,62.6,29.99,North,355,0.0,0.0,89,0.00,,,0.00,Weather View 32 v70,2013-08-12 04:01:00,
2013-08-12 00:02:00,65.9,62.6,29.99,North,355,0.0,0.0,89,0.00,,,0.00,Weather View 32 v70,2013-08-12 04:02:00,
2013-08-12 00:04:00,65.9,62.9,29.99,North,355,0.0,0.0,90,0.00,,,0.00,Weather View 32 v70,2013-08-12 04:04:00,
2013-08-12 00:09:00,65.9,62.9,29.99,North,355,0.0,0.0,90,0.00,,,0.00,Weather View 32 v70,2013-08-12 04:09:00,
2013-08-12 00:14:00,65.8,62.8,29.99,North,355,0.0,0.0,90,0.00,,,0.00,Weather View 32 v70,2013-08-12 04:14:00,
2013-08-12 00:20:00,65.7,62.7,29.99,North,355,0.0,0.0,90,0.00,,,0.00,Weather View 32 v70,2013-08-12 04:20:00,
2013-08-12 00:25:00,65.7,62.7,29.99,North,355,0.0,0.0,90,0.00,,,0.00,Weather View 32 v70,2013-08-12 04:25:00,
2013-08-12 00:30:00,65.6,62.6,29.99,North,355,0.0,0.0,90,0.00,,,0.00,Weather View 32 v70,2013-08-12 04:30:00,
2013-08-12 00:35:00,65.5,62.5,29.99,North,355,0.0,0.0,90,0.00,,,0.00,Weather View 32 v70,2013-08-12 04:35:00,
2013-08-12 00:40:00,65.4,62.4,29.99,North,355,0.0,0.0,90,0.00,,,0.00,Weather View 32 v70,2013-08-12 04:40:00,
2013-08-12 00:45:00,65.2,62.2,29.99,North,355,0.0,0.0,90,0.00,,,0.00,Weather View 32 v70,2013-08-12 04:45:00,
2013-08-12 00:50:00,64.9,61.6,29.99,North,355,0.0,0.0,89,0.00,,,0.00,Weather View 32 v70,2013-08-12 04:50:00,
2013-08-12 00:55:00,64.7,61.7,29.99,North,355,0.0,0.0,90,0.00,,,0.00,Weather View 32 v70,2013-08-12 04:55:00,
2013-08-12 01:00:00,64.5,61.5,29.99,North,355,0.0,0.0,90,0.00,,,0.00,Weather View 32 v70,2013-08-12 05:00:00,
2013-08-12 01:05:00,64.3,61.3,29.98,North,355,0.0,0.0,90,0.00,,,0.00,Weather View 32 v70,2013-08-12 05:05:00,
2013-08-12 01:10:00,64.1,61.1,29.99,North,355,0.0,0.0,90,0.00,,,0.00,Weather View 32 v70,2013-08-12 05:10:00,
2013-08-12 01:15:00,64.0,61.0,29.98,North,355,0.0,0.0,90,0.00,,,0.00,Weather View 32 v70,2013-08-12 05:15:00,
2013-08-12 01:20:00,64.0,61.3,29.98,North,355,0.0,0.0,91,0.00,,,0.00,Weather View 32 v70,2013-08-12 05:20:00,
2013-08-12 01:25:00,63.9,61.2,29.99,North,355,0.0,0.0,91,0.00,,,0.00,Weather View 32 v70,2013-08-12 05:25:00,
2013-08-12 01:30:00,64.0,61.6,29.99,North,355,0.0,0.0,92,0.00,,,0.00,Weather View 32 v70,2013-08-12 05:30:00,
2013-08-12 01:35:00,64.1,61.7,29.98,North,355,0.0,0.0,92,0.00,,,0.00,Weather View 32 v70,2013-08-12 05:35:00,
2013-08-12 01:40:00,64.2,61.8,29.98,North,355,0.0,0.0,92,0.00,,,0.00,Weather View 32 v70,2013-08-12 05:40:00,
2013-08-12 01:45:00,64.2,61.8,29.98,North,355,0.0,0.0,92,0.00,,,0.00,Weather View 32 v70,2013-08-12 05:45:00,
2013-08-12 01:50:00,64.2,61.8,29.98,North,355,0.0,0.0,92,0.00,,,0.00,Weather View 32 v70,2013-08-12 05:50:00,
2013-08-12 01:55:00,64.2,61.8,29.98,North,355,0.0,0.0,92,0.00,,,0.00,Weather View 32 v70,2013-08-12 05:55:00,
2013-08-12 02:00:00,64.3,61.9,29.97,North,355,0.0,0.0,92,0.00,,,0.00,Weather View 32 v70,2013-08-12 06:00:00,
2013-08-12 02:05:00,64.3,61.9,29.97,North,355,0.0,0.0,92,0.00,,,0.00,Weather View 32 v70,2013-08-12 06:05:00,
2013-08-12 02:10:00,64.4,62.0,29.97,North,355,0.0,0.0,92,0.00,,,0.00,Weather View 32 v70,2013-08-12 06:10:00,
2013-08-12 02:15:00,64.5,62.1,29.97,North,355,0.0,0.0,92,0.00,,,0.00,Weather View 32 v70,2013-08-12 06:15:00,
2013-08-12 02:20:00,64.4,62.0,29.97,North,355,0.0,0.0,92,0.00,,,0.00,Weather View 32 v70,2013-08-12 06:20:00,
2013-08-12 02:25:00,64.4,62.0,29.97,North,355,0.0,0.0,92,0.00,,,0.00,Weather View 32 v70,2013-08-12 06:25:00,
2013-08-12 02:30:00,64.5,62.1,29.97,North,355,0.0,0.0,92,0.00,,,0.00,Weather View 32 v70,2013-08-12 06:30:00,
2013-08-12 02:35:00,64.5,62.1,29.96,North,355,0.0,0.0,92,0.00,,,0.00,Weather View 32 v70,2013-08-12 06:35:00,
2013-08-12 02:40:00,64.6,62.5,29.96,North,355,0.0,0.0,93,0.00,,,0.00,Weather View 32 v70,2013-08-12 06:40:00,
2013-08-12 02:45:00,64.6,62.5,29.97,North,355,0.0,0.0,93,0.00,,,0.00,Weather View 32 v70,2013-08-12 06:45:00,
2013-08-12 02:50:00,64.7,62.6,29.97,North,355,0.0,0.0,93,0.00,,,0.00,Weather View 32 v70,2013-08-12 06:50:00,
2013-08-12 02:55:00,64.7,62.6,29.97,North,355,0.0,0.0,93,0.00,,,0.00,Weather View 32 v70,2013-08-12 06:55:00,
2013-08-12 03:00:00,64.7,62.6,29.97,North,355,0.0,0.0,93,0.00,,,0.00,Weather View 32 v70,2013-08-12 07:00:00,
2013-08-12 03:05:00,64.7,62.6,29.97,North,355,0.0,0.0,93,0.00,,,0.00,Weather View 32 v70,2013-08-12 07:05:00,
2013-08-12 03:10:00,64.7,62.6,29.97,North,355,0.0,0.0,93,0.00,,,0.00,Weather View 32 v70,2013-08-12 07:10:00,
2013-08-12 03:15:00,64.7,62.6,29.97,North,355,0.0,0.0,93,0.00,,,0.00,Weather View 32 v70,2013-08-12 07:15:00,
2013-08-12 03:20:00,64.6,62.5,29.97,North,355,0.0,0.0,93,0.00,,,0.00,Weather View 32 v70,2013-08-12 07:20:00,
2013-08-12 03:25:00,64.5,62.4,29.97,North,355,0.0,0.0,93,0.00,,,0.00,Weather View 32 v70,2013-08-12 07:25:00,
2013-08-12 03:30:00,64.5,62.4,29.96,North,355,0.0,0.0,93,0.00,,,0.00,Weather View 32 v70,2013-08-12 07:30:00,
2013-08-12 03:35:00,64.4,62.3,29.97,North,355,0.0,0.0,93,0.00,,,0.00,Weather View 32 v70,2013-08-12 07:35:00,
2013-08-12 03:40:00,64.4,62.3,29.96,North,355,0.0,0.0,93,0.00,,,0.00,Weather View 32 v70,2013-08-12 07:40:00,
2013-08-12 03:45:00,64.3,62.2,29.96,North,355,0.0,0.0,93,0.00,,,0.00,Weather View 32 v70,2013-08-12 07:45:00,
2013-08-12 03:50:00,64.4,62.3,29.96,North,355,0.0,0.0,93,0.00,,,0.00,Weather View 32 v70,2013-08-12 07:50:00,
2013-08-12 03:55:00,64.4,62.3,29.96,North,355,0.0,0.0,93,0.00,,,0.00,Weather View 32 v70,2013-08-12 07:55:00,
2013-08-12 04:00:00,64.3,62.2,29.96,North,355,0.0,0.0,93,0.00,,,0.00,Weather View 32 v70,2013-08-12 08:00:00,
2013-08-12 04:05:00,64.3,62.2,29.96,North,355,0.0,0.0,93,0.00,,,0.00,Weather View 32 v70,2013-08-12 08:05:00,
2013-08-12 04:10:00,64.3,62.2,29.96,North,355,0.0,0.0,93,0.00,,,0.00,Weather View 32 v70,2013-08-12 08:10:00,
2013-08-12 04:15:00,64.3,62.2,29.96,North,355,0.0,0.0,93,0.00,,,0.00,Weather View 32 v70,2013-08-12 08:15:00,
2013-08-12 04:20:00,64.2,62.1,29.96,North,355,0.0,0.0,93,0.00,,,0.00,Weather View 32 v70,2013-08-12 08:20:00,
2013-08-12 04:25:00,64.1,62.0,29.96,North,355,0.0,0.0,93,0.00,,,0.00,Weather View 32 v70,2013-08-12 08:25:00,
2013-08-12 04:30:00,64.2,62.1,29.96,North,355,0.0,0.0,93,0.00,,,0.00,Weather View 32 v70,2013-08-12 08:30:00,
2013-08-12 04:35:00,64.2,62.1,29.96,North,355,0.0,0.0,93,0.00,,,0.00,Weather View 32 v70,2013-08-12 08:35:00,
2013-08-12 04:40:00,64.3,62.2,29.96,North,355,0.0,0.0,93,0.00,,,0.00,Weather View 32 v70,2013-08-12 08:40:00,
2013-08-12 04:50:00,64.3,62.5,29.95,North,355,0.0,0.0,94,0.00,,,0.00,Weather View 32 v70,2013-08-12 08:50:00,
2013-08-12 04:55:00,64.3,62.5,29.94,North,355,0.0,0.0,94,0.00,,,0.00,Weather View 32 v70,2013-08-12 08:55:00,
2013-08-12 05:00:00,64.3,62.2,29.95,North,355,0.0,0.0,93,0.00,,,0.00,Weather View 32 v70,2013-08-12 09:00:00,
2013-08-12 05:05:00,64.2,62.1,29.95,North,355,0.0,0.0,93,0.00,,,0.00,Weather View 32 v70,2013-08-12 09:05:00,
2013-08-12 05:10:00,64.0,61.9,29.95,North,355,0.0,0.0,93,0.00,,,0.00,Weather View 32 v70,2013-08-12 09:10:00,
2013-08-12 05:15:00,63.9,61.8,29.95,North,355,0.0,0.0,93,0.00,,,0.00,Weather View 32 v70,2013-08-12 09:15:00,
2013-08-12 05:20:00,63.9,61.8,29.95,North,355,0.0,0.0,93,0.00,,,0.00,Weather View 32 v70,2013-08-12 09:20:00,
2013-08-12 05:25:00,63.9,62.1,29.94,North,355,0.0,0.0,94,0.00,,,0.00,Weather View 32 v70,2013-08-12 09:25:00,
2013-08-12 05:30:00,63.9,61.8,29.94,North,355,0.0,0.0,93,0.00,,,0.00,Weather View 32 v70,2013-08-12 09:30:00,
2013-08-12 05:35:00,63.9,62.1,29.94,North,355,0.0,0.0,94,0.00,,,0.00,Weather View 32 v70,2013-08-12 09:35:00,
2013-08-12 05:40:00,63.9,62.1,29.94,North,355,0.0,0.0,94,0.00,,,0.00,Weather View 32 v70,2013-08-12 09:40:00,
2013-08-12 05:45:00,64.0,62.2,29.94,North,355,0.0,0.0,94,0.00,,,0.00,Weather View 32 v70,2013-08-12 09:45:00,
2013-08-12 05:50:00,63.9,62.1,29.94,North,355,0.0,0.0,94,0.00,,,0.00,Weather View 32 v70,2013-08-12 09:50:00,
2013-08-12 05:55:00,63.9,62.1,29.94,North,355,0.0,0.0,94,0.00,,,0.00,Weather View 32 v70,2013-08-12 09:55:00,
2013-08-12 06:00:00,63.9,62.1,29.94,North,355,0.0,0.0,94,0.00,,,0.00,Weather View 32 v70,2013-08-12 10:00:00,
2013-08-12 06:05:00,63.9,62.1,29.94,North,355,0.0,0.0,94,0.00,,,0.00,Weather View 32 v70,2013-08-12 10:05:00,
2013-08-12 06:10:00,63.9,62.1,29.94,North,355,0.0,0.0,94,0.00,,,0.00,Weather View 32 v70,2013-08-12 10:10:00,
2013-08-12 06:15:00,64.0,62.2,29.94,North,355,0.0,0.0,94,0.00,,,0.00,Weather View 32 v70,2013-08-12 10:15:00,
2013-08-12 06:20:00,64.1,62.3,29.94,North,355,0.0,0.0,94,0.00,,,0.00,Weather View 32 v70,2013-08-12 10:20:00,
2013-08-12 06:25:00,64.1,62.3,29.94,North,355,0.0,0.0,94,0.00,,,0.00,Weather View 32 v70,2013-08-12 10:25:00,
2013-08-12 06:30:00,64.1,62.3,29.94,North,355,0.0,0.0,94,0.00,,,0.00,Weather View 32 v70,2013-08-12 10:30:00,
2013-08-12 06:35:00,64.2,62.7,29.95,North,355,0.0,0.0,95,0.00,,,0.00,Weather View 32 v70,2013-08-12 10:35:00,
2013-08-12 06:40:00,64.2,62.7,29.95,North,355,0.0,0.0,95,0.00,,,0.00,Weather View 32 v70,2013-08-12 10:40:00,
2013-08-12 06:45:00,64.3,62.8,29.94,North,355,0.0,0.0,95,0.00,,,0.00,Weather View 32 v70,2013-08-12 10:45:00,
2013-08-12 06:50:00,64.3,62.8,29.94,North,355,0.0,0.0,95,0.00,,,0.00,Weather View 32 v70,2013-08-12 10:50:00,
2013-08-12 06:55:00,64.3,62.8,29.95,North,355,0.0,0.0,95,0.00,,,0.00,Weather View 32 v70,2013-08-12 10:55:00,
2013-08-12 07:00:00,64.3,62.8,29.95,North,355,0.0,0.0,95,0.00,,,0.00,Weather View 32 v70,2013-08-12 11:00:00,
2013-08-12 07:05:00,64.3,62.8,29.95,North,355,0.0,0.0,95,0.00,,,0.00,Weather View 32 v70,2013-08-12 11:05:00,
2013-08-12 07:10:00,64.3,62.8,29.95,North,355,0.0,0.0,95,0.00,,,0.00,Weather View 32 v70,2013-08-12 11:10:00,
2013-08-12 07:15:00,64.3,62.8,29.95,North,355,0.0,0.0,95,0.00,,,0.00,Weather View 32 v70,2013-08-12 11:15:00,
2013-08-12 07:20:00,64.3,62.8,29.95,North,355,0.0,0.0,95,0.00,,,0.00,Weather View 32 v70,2013-08-12 11:20:00,
2013-08-12 07:25:00,64.2,62.7,29.95,North,355,0.0,0.0,95,0.00,,,0.00,Weather View 32 v70,2013-08-12 11:25:00,
2013-08-12 07:30:00,64.2,63.0,29.95,North,355,0.0,0.0,96,0.00,,,0.00,Weather View 32 v70,2013-08-12 11:30:00,
2013-08-12 07:35:00,64.2,63.0,29.95,North,355,0.0,0.0,96,0.00,,,0.00,Weather View 32 v70,2013-08-12 11:35:00,
2013-08-12 07:40:00,64.2,62.7,29.95,North,355,0.0,0.0,95,0.00,,,0.00,Weather View 32 v70,2013-08-12 11:40:00,
2013-08-12 07:45:00,64.2,63.0,29.95,North,355,0.0,0.0,96,0.01,,,0.02,Weather View 32 v70,2013-08-12 11:45:00,
2013-08-12 07:50:00,64.1,62.9,29.95,North,355,0.0,0.0,96,0.03,,,0.03,Weather View 32 v70,2013-08-12 11:50:00,
2013-08-12 07:55:00,64.1,62.9,29.95,North,355,0.0,0.0,96,0.04,,,0.04,Weather View 32 v70,2013-08-12 11:55:00,
2013-08-12 08:00:00,64.0,62.8,29.96,North,355,0.0,1.0,96,0.06,,,0.06,Weather View 32 v70,2013-08-12 12:00:00,
2013-08-12 08:05:00,63.9,62.7,29.95,North,355,0.0,1.0,96,0.06,,,0.07,Weather View 32 v70,2013-08-12 12:05:00,
2013-08-12 08:10:00,63.6,62.1,29.95,North,355,0.0,1.0,95,0.08,,,0.08,Weather View 32 v70,2013-08-12 12:10:00,
2013-08-12 08:15:00,63.4,61.9,29.95,North,355,0.0,1.0,95,0.10,,,0.10,Weather View 32 v70,2013-08-12 12:15:00,
2013-08-12 08:20:00,63.2,62.0,29.94,North,355,0.0,1.0,96,0.12,,,0.12,Weather View 32 v70,2013-08-12 12:20:00,
2013-08-12 08:26:00,63.1,61.9,29.94,North,355,0.0,1.0,96,0.14,,,0.14,Weather View 32 v70,2013-08-12 12:26:00,
2013-08-12 08:31:00,62.9,61.7,29.93,North,355,0.0,1.0,96,0.15,,,0.15,Weather View 32 v70,2013-08-12 12:31:00,
2013-08-12 08:36:00,62.8,61.6,29.94,North,355,0.0,1.0,96,0.16,,,0.16,Weather View 32 v70,2013-08-12 12:36:00,
2013-08-12 08:41:00,62.8,61.6,29.93,North,355,0.0,1.0,96,0.16,,,0.16,Weather View 32 v70,2013-08-12 12:41:00,
2013-08-12 08:46:00,62.7,61.8,29.94,North,355,0.0,1.0,97,0.14,,,0.16,Weather View 32 v70,2013-08-12 12:46:00,
2013-08-12 08:51:00,62.7,61.8,29.95,North,355,0.0,1.0,97,0.13,,,0.16,Weather View 32 v70,2013-08-12 12:51:00,
2013-08-12 08:56:00,62.7,61.8,29.95,North,355,0.0,1.0,97,0.11,,,0.16,Weather View 32 v70,2013-08-12 12:56:00,
2013-08-12 09:01:00,62.7,61.8,29.95,North,355,0.0,1.0,97,0.10,,,0.16,Weather View 32 v70,2013-08-12 13:01:00,
2013-08-12 09:06:00,62.7,61.8,29.95,North,355,0.0,1.0,97,0.09,,,0.16,Weather View 32 v70,2013-08-12 13:06:00,
2013-08-12 09:11:00,62.8,61.9,29.95,North,355,0.0,1.0,97,0.08,,,0.16,Weather View 32 v70,2013-08-12 13:11:00,
2013-08-12 09:16:00,62.8,61.9,29.95,North,355,0.0,1.0,97,0.07,,,0.17,Weather View 32 v70,2013-08-12 13:16:00,
2013-08-12 09:21:00,62.9,62.0,29.94,North,355,0.0,1.0,97,0.06,,,0.18,Weather View 32 v70,2013-08-12 13:21:00,
2013-08-12 09:26:00,62.9,62.0,29.94,North,355,0.0,1.0,97,0.04,,,0.18,Weather View 32 v70,2013-08-12 13:26:00,
2013-08-12 09:31:00,63.0,62.1,29.94,North,355,0.0,1.0,97,0.05,,,0.20,Weather View 32 v70,2013-08-12 13:31:00,
2013-08-12 09:36:00,63.0,62.1,29.94,North,355,0.0,1.0,97,0.06,,,0.22,Weather View 32 v70,2013-08-12 13:36:00,
2013-08-12 09:41:00,63.0,62.4,29.93,North,355,0.0,1.0,98,0.08,,,0.24,Weather View 32 v70,2013-08-12 13:41:00,
2013-08-12 09:46:00,63.1,62.5,29.93,North,355,0.0,1.0,98,0.10,,,0.26,Weather View 32 v70,2013-08-12 13:46:00,
2013-08-12 09:51:00,63.2,62.6,29.92,North,355,0.0,1.0,98,0.12,,,0.28,Weather View 32 v70,2013-08-12 13:51:00,
2013-08-12 09:56:00,63.4,62.8,29.92,North,355,0.0,1.0,98,0.12,,,0.28,Weather View 32 v70,2013-08-12 13:56:00,
2013-08-12 10:01:00,63.5,62.9,29.93,North,355,0.0,1.0,98,0.12,,,0.28,Weather View 32 v70,2013-08-12 14:01:00,
2013-08-12 10:06:00,63.6,63.0,29.93,North,355,0.0,1.0,98,0.12,,,0.28,Weather View 32 v70,2013-08-12 14:06:00,
2013-08-12 10:11:00,63.7,63.1,29.92,North,355,0.0,1.0,98,0.12,,,0.28,Weather View 32 v70,2013-08-12 14:11:00,
2013-08-12 10:16:00,63.8,63.2,29.92,North,355,0.0,1.0,98,0.11,,,0.28,Weather View 32 v70,2013-08-12 14:16:00,
2013-08-12 10:21:00,64.0,63.4,29.93,North,355,0.0,1.0,98,0.10,,,0.28,Weather View 32 v70,2013-08-12 14:21:00,
2013-08-12 10:26:00,64.2,63.6,29.92,North,355,0.0,1.0,98,0.10,,,0.28,Weather View 32 v70,2013-08-12 14:26:00,
2013-08-12 10:31:00,64.3,63.7,29.93,North,355,0.0,1.0,98,0.08,,,0.28,Weather View 32 v70,2013-08-12 14:31:00,
2013-08-12 10:36:00,64.4,63.8,29.94,North,355,0.0,1.0,98,0.06,,,0.28,Weather View 32 v70,2013-08-12 14:36:00,
2013-08-12 10:41:00,64.4,63.8,29.94,West,281,0.0,3.0,98,0.06,,,0.30,Weather View 32 v70,2013-08-12 14:41:00,
2013-08-12 10:46:00,64.4,63.8,29.94,West,281,0.0,3.0,98,0.04,,,0.31,Weather View 32 v70,2013-08-12 14:46:00,
2013-08-12 10:51:00,64.4,63.8,29.94,West,281,0.0,3.0,98,0.04,,,0.32,Weather View 32 v70,2013-08-12 14:51:00,
2013-08-12 10:57:00,64.4,63.8,29.94,WSW,244,0.0,3.0,98,0.06,,,0.34,Weather View 32 v70,2013-08-12 14:57:00,
2013-08-12 11:02:00,64.5,63.9,29.94,WSW,246,0.0,3.0,98,0.07,,,0.35,Weather View 32 v70,2013-08-12 15:02:00,
2013-08-12 11:07:00,64.5,63.9,29.95,NNW,339,2.0,3.0,98,0.08,,,0.36,Weather View 32 v70,2013-08-12 15:07:00,
2013-08-12 11:12:00,64.6,64.0,29.95,NNW,338,0.0,4.0,98,0.08,,,0.36,Weather View 32 v70,2013-08-12 15:12:00,
2013-08-12 11:17:00,64.6,64.0,29.94,NNW,338,0.0,4.0,98,0.10,,,0.39,Weather View 32 v70,2013-08-12 15:17:00,
2013-08-12 11:22:00,64.6,64.0,29.94,NNW,338,0.0,4.0,98,0.12,,,0.40,Weather View 32 v70,2013-08-12 15:22:00,
2013-08-12 11:27:00,64.5,63.9,29.94,NNW,338,0.0,4.0,98,0.15,,,0.44,Weather View 32 v70,2013-08-12 15:27:00,
2013-08-12 11:32:00,64.5,63.9,29.94,NNW,338,0.0,4.0,98,-0.28,,,0.46,Weather View 32 v70,2013-08-12 15:32:00,
2013-08-12 11:37:00,64.4,63.8,29.93,NNW,338,0.0,4.0,98,0.20,,,0.48,Weather View 32 v70,2013-08-12 15:37:00,
2013-08-12 11:42:00,64.3,63.7,29.93,NNW,338,0.0,4.0,98,0.20,,,0.50,Weather View 32 v70,2013-08-12 15:42:00,
2013-08-12 11:47:00,64.3,63.7,29.93,NNW,338,0.0,4.0,98,0.20,,,0.51,Weather View 32 v70,2013-08-12 15:47:00,
2013-08-12 11:52:00,64.3,63.7,29.93,NNW,336,0.0,4.0,98,0.20,,,0.53,Weather View 32 v70,2013-08-12 15:52:00,
2013-08-12 11:57:00,64.3,63.7,29.93,NNW,333,0.0,4.0,98,0.20,,,0.54,Weather View 32 v70,2013-08-12 15:57:00,
2013-08-12 12:02:00,64.3,64.0,29.93,West,261,0.0,4.0,99,0.20,,,0.55,Weather View 32 v70,2013-08-12 16:02:00,
2013-08-12 12:07:00,64.4,64.1,29.93,West,260,0.0,4.0,99,0.20,,,0.56,Weather View 32 v70,2013-08-12 16:07:00,
2013-08-12 12:12:00,64.5,64.2,29.92,WSW,257,0.0,4.0,99,0.21,,,0.57,Weather View 32 v70,2013-08-12 16:12:00,
2013-08-12 12:17:00,64.6,64.3,29.92,WSW,239,0.0,4.0,99,0.19,,,0.58,Weather View 32 v70,2013-08-12 16:17:00,
2013-08-12 12:22:00,64.8,64.5,29.92,WSW,239,0.0,4.0,99,0.18,,,0.58,Weather View 32 v70,2013-08-12 16:22:00,
2013-08-12 12:27:00,64.8,64.5,29.92,WSW,238,0.0,4.0,99,0.14,,,0.58,Weather View 32 v70,2013-08-12 16:27:00,
2013-08-12 12:32:00,64.9,64.6,29.92,WSW,238,0.0,4.0,99,0.12,,,0.58,Weather View 32 v70,2013-08-12 16:32:00,
2013-08-12 12:37:00,64.8,64.5,29.91,WSW,238,0.0,4.0,99,0.11,,,0.59,Weather View 32 v70,2013-08-12 16:37:00,
2013-08-12 12:42:00,64.8,64.5,29.92,WSW,238,0.0,4.0,99,0.09,,,0.59,Weather View 32 v70,2013-08-12 16:42:00,
2013-08-12 12:47:00,65.0,64.7,29.92,SW,232,0.0,4.0,99,0.09,,,0.60,Weather View 32 v70,2013-08-12 16:47:00,
2013-08-12 12:52:00,65.0,64.7,29.91,SW,232,0.0,4.0,99,0.08,,,0.60,Weather View 32 v70,2013-08-12 16:52:00,
2013-08-12 12:57:00,65.1,64.8,29.91,SW,232,0.0,4.0,99,0.06,,,0.60,Weather View 32 v70,2013-08-12 16:57:00,
2013-08-12 13:02:00,65.1,64.8,29.91,SW,232,0.0,2.0,99,0.06,,,0.61,Weather View 32 v70,2013-08-12 17:02:00,
2013-08-12 13:07:00,65.1,64.8,29.92,SW,232,0.0,2.0,99,0.06,,,0.62,Weather View 32 v70,2013-08-12 17:07:00,
2013-08-12 13:12:00,65.0,64.7,29.91,SSE,149,0.0,2.0,99,0.08,,,0.66,Weather View 32 v70,2013-08-12 17:12:00,
2013-08-12 13:17:00,64.9,64.6,29.91,SSE,149,0.0,2.0,99,0.09,,,0.68,Weather View 32 v70,2013-08-12 17:17:00,
2013-08-12 13:22:00,64.9,64.6,29.91,SSE,149,0.0,2.0,99,0.10,,,0.68,Weather View 32 v70,2013-08-12 17:22:00,
2013-08-12 13:27:00,64.9,64.6,29.92,SSW,212,0.0,2.0,99,0.11,,,0.69,Weather View 32 v70,2013-08-12 17:27:00,
2013-08-12 13:33:00,64.9,64.6,29.91,SSW,212,0.0,2.0,99,0.11,,,0.70,Weather View 32 v70,2013-08-12 17:33:00,
2013-08-12 13:38:00,64.9,64.6,29.91,SSW,212,0.0,2.0,99,0.12,,,0.71,Weather View 32 v70,2013-08-12 17:38:00,
2013-08-12 13:43:00,64.9,64.6,29.91,SSW,212,0.0,2.0,99,0.12,,,0.72,Weather View 32 v70,2013-08-12 17:43:00,
2013-08-12 13:48:00,64.9,64.6,29.91,SW,221,0.0,2.0,99,0.13,,,0.74,Weather View 32 v70,2013-08-12 17:48:00,
2013-08-12 13:53:00,64.9,64.6,29.91,SW,219,0.0,2.0,99,0.18,,,0.79,Weather View 32 v70,2013-08-12 17:53:00,
2013-08-12 13:58:00,64.9,64.6,29.91,SW,219,0.0,2.0,99,0.21,,,0.81,Weather View 32 v70,2013-08-12 17:58:00,
2013-08-12 14:03:00,64.9,64.6,29.90,SW,219,0.0,2.0,99,0.22,,,0.83,Weather View 32 v70,2013-08-12 18:03:00,
2013-08-12 14:08:00,65.0,64.7,29.91,SW,219,0.0,2.0,99,0.21,,,0.84,Weather View 32 v70,2013-08-12 18:08:00,
2013-08-12 14:13:00,65.1,64.8,29.91,SW,219,0.0,2.0,99,0.18,,,0.84,Weather View 32 v70,2013-08-12 18:13:00,
2013-08-12 14:18:00,65.1,64.8,29.91,SW,220,0.0,2.0,99,0.20,,,0.89,Weather View 32 v70,2013-08-12 18:18:00,
2013-08-12 14:23:00,65.2,64.9,29.91,NNW,336,0.0,2.0,99,0.22,,,0.90,Weather View 32 v70,2013-08-12 18:23:00,
2013-08-12 14:28:00,65.3,65.0,29.91,NNW,336,0.0,2.0,99,0.22,,,0.91,Weather View 32 v70,2013-08-12 18:28:00,
2013-08-12 14:33:00,65.3,65.0,29.91,NNW,335,0.0,2.0,99,0.22,,,0.92,Weather View 32 v70,2013-08-12 18:33:00,
2013-08-12 14:38:00,65.4,65.1,29.90,SSE,153,0.0,2.0,99,0.24,,,0.95,Weather View 32 v70,2013-08-12 18:38:00,
2013-08-12 14:43:00,65.3,65.0,29.90,SSE,147,0.0,4.0,99,0.25,,,0.97,Weather View 32 v70,2013-08-12 18:43:00,
2013-08-12 14:48:00,65.3,65.0,29.90,WNW,303,0.0,4.0,99,0.26,,,1.00,Weather View 32 v70,2013-08-12 18:48:00,
2013-08-12 14:54:00,65.4,65.1,29.89,WNW,298,0.0,4.0,99,0.21,,,1.00,Weather View 32 v70,2013-08-12 18:54:00,
2013-08-12 14:59:00,65.5,65.2,29.90,WNW,298,0.0,4.0,99,0.19,,,1.00,Weather View 32 v70,2013-08-12 18:59:00,
2013-08-12 15:04:00,65.6,65.3,29.89,WNW,300,0.0,4.0,99,0.17,,,1.00,Weather View 32 v70,2013-08-12 19:04:00,
2013-08-12 15:09:00,65.8,65.5,29.88,WNW,299,0.0,4.0,99,0.16,,,1.00,Weather View 32 v70,2013-08-12 19:09:00,
2013-08-12 15:14:00,66.0,65.7,29.89,WNW,300,0.0,4.0,99,0.16,,,1.00,Weather View 32 v70,2013-08-12 19:14:00,
2013-08-12 15:19:00,66.1,65.8,29.89,WNW,300,0.0,4.0,99,0.12,,,1.00,Weather View 32 v70,2013-08-12 19:19:00,
2013-08-12 15:24:00,66.1,65.8,29.89,WNW,299,0.0,4.0,99,0.10,,,1.00,Weather View 32 v70,2013-08-12 19:24:00,
2013-08-12 15:29:00,66.3,66.0,29.88,WNW,299,0.0,4.0,99,0.09,,,1.00,Weather View 32 v70,2013-08-12 19:29:00,
2013-08-12 15:34:00,66.4,66.1,29.88,WNW,300,0.0,4.0,99,0.08,,,1.00,Weather View 32 v70,2013-08-12 19:34:00,
2013-08-12 15:39:00,66.6,66.3,29.88,WNW,300,0.0,4.0,99,0.05,,,1.00,Weather View 32 v70,2013-08-12 19:39:00,
2013-08-12 15:44:00,66.8,66.8,29.87,WNW,300,0.0,3.0,100,0.03,,,1.00,Weather View 32 v70,2013-08-12 19:44:00,
2013-08-12 15:49:00,67.0,67.0,29.88,WNW,300,0.0,3.0,100,0.00,,,1.00,Weather View 32 v70,2013-08-12 19:49:00,
2013-08-12 15:54:00,67.1,66.8,29.88,WNW,299,0.0,3.0,99,-1.00,,,1.00,Weather View 32 v70,2013-08-12 19:54:00,
2013-08-12 15:59:00,67.1,66.8,29.88,WNW,299,0.0,1.0,99,0.00,,,1.00,Weather View 32 v70,2013-08-12 19:59:00,
2013-08-12 16:04:00,67.3,67.0,29.88,WNW,300,0.0,1.0,99,0.00,,,1.00,Weather View 32 v70,2013-08-12 20:04:00,
2013-08-12 16:09:00,67.2,66.9,29.87,WNW,300,0.0,1.0,99,0.00,,,1.00,Weather View 32 v70,2013-08-12 20:09:00,
2013-08-12 16:14:00,67.4,67.0,29.87,WNW,299,0.0,1.0,99,0.00,,,1.00,Weather View 32 v70,2013-08-12 20:14:00,
2013-08-12 16:19:00,67.7,67.4,29.86,WNW,300,0.0,1.0,99,0.00,,,1.00,Weather View 32 v70,2013-08-12 20:19:00,
2013-08-12 16:24:00,67.9,67.6,29.86,WNW,300,0.0,1.0,99,0.00,,,1.00,Weather View 32 v70,2013-08-12 20:24:00,
2013-08-12 16:29:00,67.8,67.5,29.86,WNW,299,0.0,1.0,99,0.00,,,1.00,Weather View 32 v70,2013-08-12 20:29:00,
2013-08-12 16:34:00,67.9,67.6,29.86,WNW,300,0.0,1.0,99,0.00,,,1.00,Weather View 32 v70,2013-08-12 20:34:00,
2013-08-12 16:39:00,67.9,67.6,29.85,WNW,300,0.0,1.0,99,0.00,,,1.00,Weather View 32 v70,2013-08-12 20:39:00,
2013-08-12 16:44:00,67.8,67.5,29.86,WNW,299,0.0,1.0,99,0.00,,,1.00,Weather View 32 v70,2013-08-12 20:44:00,
2013-08-12 16:49:00,67.8,67.5,29.86,WNW,300,0.0,1.0,99,0.00,,,1.00,Weather View 32 v70,2013-08-12 20:49:00,
2013-08-12 16:54:00,67.7,67.1,29.85,WNW,300,0.0,1.0,98,0.00,,,1.00,Weather View 32 v70,2013-08-12 20:54:00,
2013-08-12 16:59:00,67.9,67.6,29.85,West,260,0.0,1.0,99,0.00,,,1.00,Weather View 32 v70,2013-08-12 20:59:00,
2013-08-12 17:04:00,68.1,67.8,29.84,West,260,0.0,1.0,99,0.00,,,1.00,Weather View 32 v70,2013-08-12 21:04:00,
2013-08-12 17:09:00,68.5,68.2,29.84,West,260,0.0,1.0,99,0.00,,,1.00,Weather View 32 v70,2013-08-12 21:09:00,
2013-08-12 17:14:00,68.8,68.5,29.83,West,260,0.0,1.0,99,0.00,,,1.00,Weather View 32 v70,2013-08-12 21:14:00,
2013-08-12 17:19:00,69.1,68.8,29.83,West,260,0.0,1.0,99,0.00,,,1.00,Weather View 32 v70,2013-08-12 21:19:00,
2013-08-12 17:24:00,69.1,68.5,29.83,West,260,0.0,1.0,98,0.00,,,1.00,Weather View 32 v70,2013-08-12 21:24:00,
2013-08-12 17:29:00,69.1,68.5,29.83,West,260,0.0,3.0,98,0.00,,,1.00,Weather View 32 v70,2013-08-12 21:29:00,
2013-08-12 17:34:00,69.2,68.6,29.83,West,273,0.0,4.0,98,0.00,,,1.00,Weather View 32 v70,2013-08-12 21:34:00,
2013-08-12 17:39:00,69.3,68.7,29.83,West,273,0.0,4.0,98,0.00,,,1.00,Weather View 32 v70,2013-08-12 21:39:00,
2013-08-12 17:44:00,69.4,68.8,29.83,West,273,0.0,4.0,98,0.00,,,1.00,Weather View 32 v70,2013-08-12 21:44:00,
2013-08-12 17:49:00,69.7,68.8,29.83,West,273,0.0,4.0,97,0.00,,,1.00,Weather View 32 v70,2013-08-12 21:49:00,
2013-08-12 17:54:00,69.8,68.9,29.83,West,273,0.0,4.0,97,0.00,,,1.00,Weather View 32 v70,2013-08-12 21:54:00,
2013-08-12 17:59:00,69.8,68.9,29.83,West,273,0.0,4.0,97,0.00,,,1.00,Weather View 32 v70,2013-08-12 21:59:00,
2013-08-12 18:04:00,70.0,68.8,29.82,West,273,0.0,4.0,96,0.00,,,1.00,Weather View 32 v70,2013-08-12 22:04:00,
2013-08-12 18:09:00,70.3,69.4,29.82,West,273,0.0,4.0,97,0.00,,,1.00,Weather View 32 v70,2013-08-12 22:09:00,
2013-08-12 18:14:00,70.6,69.7,29.82,West,273,0.0,4.0,97,0.00,,,1.00,Weather View 32 v70,2013-08-12 22:14:00,
2013-08-12 18:19:00,70.8,69.9,29.82,West,273,0.0,4.0,97,0.00,,,1.00,Weather View 32 v70,2013-08-12 22:19:00,
2013-08-12 18:24:00,70.9,70.0,29.82,West,273,0.0,4.0,97,0.00,,,1.00,Weather View 32 v70,2013-08-12 22:24:00,
2013-08-12 18:29:00,71.0,69.8,29.82,West,273,0.0,4.0,96,0.00,,,1.00,Weather View 32 v70,2013-08-12 22:29:00,
2013-08-12 18:34:00,71.1,70.2,29.81,West,273,0.0,3.0,97,0.00,,,1.00,Weather View 32 v70,2013-08-12 22:34:00,
2013-08-12 18:39:00,71.2,70.0,29.81,West,273,0.0,3.0,96,0.00,,,1.00,Weather View 32 v70,2013-08-12 22:39:00,
2013-08-12 18:44:00,71.1,69.9,29.81,West,273,0.0,3.0,96,0.00,,,1.00,Weather View 32 v70,2013-08-12 22:44:00,
2013-08-12 18:49:00,71.0,69.8,29.80,West,273,0.0,3.0,96,0.00,,,1.00,Weather View 32 v70,2013-08-12 22:49:00,
2013-08-12 18:54:00,70.9,69.7,29.80,West,273,0.0,3.0,96,0.00,,,1.00,Weather View 32 v70,2013-08-12 22:54:00,
2013-08-12 18:59:00,70.8,69.6,29.79,West,273,0.0,1.0,96,0.00,,,1.00,Weather View 32 v70,2013-08-12 22:59:00,
2013-08-12 19:04:00,70.7,69.5,29.79,West,273,0.0,0.0,96,0.00,,,1.00,Weather View 32 v70,2013-08-12 23:04:00,
2013-08-12 19:09:00,70.6,69.4,29.80,West,273,0.0,0.0,96,0.00,,,1.00,Weather View 32 v70,2013-08-12 23:09:00,
2013-08-12 19:14:00,70.3,69.1,29.79,West,273,0.0,0.0,96,0.00,,,1.00,Weather View 32 v70,2013-08-12 23:14:00,
2013-08-12 19:19:00,69.9,68.7,29.79,West,273,0.0,0.0,96,0.00,,,1.00,Weather View 32 v70,2013-08-12 23:19:00,
2013-08-12 19:25:00,69.8,68.6,29.79,West,273,0.0,0.0,96,0.00,,,1.00,Weather View 32 v70,2013-08-12 23:25:00,
2013-08-12 19:30:00,69.7,68.5,29.79,West,273,0.0,0.0,96,0.01,,,1.01,Weather View 32 v70,2013-08-12 23:30:00,
2013-08-12 19:35:00,69.5,68.3,29.79,West,273,0.0,0.0,96,0.01,,,1.01,Weather View 32 v70,2013-08-12 23:35:00,
2013-08-12 19:40:00,69.3,68.1,29.78,West,273,0.0,0.0,96,0.02,,,1.02,Weather View 32 v70,2013-08-12 23:40:00,
2013-08-12 19:45:00,69.2,68.3,29.78,West,273,0.0,0.0,97,0.03,,,1.03,Weather View 32 v70,2013-08-12 23:45:00,
2013-08-12 19:50:00,69.1,68.2,29.78,West,273,0.0,0.0,97,0.06,,,1.06,Weather View 32 v70,2013-08-12 23:50:00,
2013-08-12 19:55:00,69.0,68.1,29.79,West,273,0.0,0.0,97,0.07,,,1.07,Weather View 32 v70,2013-08-12 23:55:00,
2013-08-12 20:00:00,69.0,68.1,29.80,West,273,0.0,0.0,97,0.08,,,1.08,Weather View 32 v70,2013-08-13 00:00:00,
2013-08-12 20:05:00,68.8,67.9,29.80,West,273,0.0,0.0,97,0.08,,,1.08,Weather View 32 v70,2013-08-13 00:05:00,
2013-08-12 20:10:00,68.8,67.9,29.80,West,273,0.0,0.0,97,0.08,,,1.08,Weather View 32 v70,2013-08-13 00:10:00,
2013-08-12 20:15:00,68.7,68.1,29.80,West,273,0.0,0.0,98,0.08,,,1.08,Weather View 32 v70,2013-08-13 00:15:00,
2013-08-12 20:20:00,68.6,68.0,29.79,West,273,0.0,0.0,98,0.08,,,1.08,Weather View 32 v70,2013-08-13 00:20:00,
2013-08-12 20:25:00,68.5,67.9,29.80,West,273,0.0,0.0,98,0.07,,,1.08,Weather View 32 v70,2013-08-13 00:25:00,
2013-08-12 20:30:00,68.5,67.9,29.80,West,273,0.0,0.0,98,0.07,,,1.08,Weather View 32 v70,2013-08-13 00:30:00,
2013-08-12 20:35:00,68.4,67.8,29.80,West,273,0.0,0.0,98,0.07,,,1.08,Weather View 32 v70,2013-08-13 00:35:00,
2013-08-12 20:40:00,68.3,67.7,29.80,West,273,0.0,0.0,98,0.06,,,1.08,Weather View 32 v70,2013-08-13 00:40:00,
2013-08-12 20:45:00,68.2,67.6,29.80,West,273,0.0,0.0,98,0.05,,,1.08,Weather View 32 v70,2013-08-13 00:45:00,
2013-08-12 20:50:00,68.2,67.6,29.79,West,273,0.0,0.0,98,0.02,,,1.08,Weather View 32 v70,2013-08-13 00:50:00,
2013-08-12 20:55:00,68.0,67.4,29.79,West,273,0.0,0.0,98,0.01,,,1.08,Weather View 32 v70,2013-08-13 00:55:00,
2013-08-12 21:00:00,67.8,67.2,29.79,West,273,0.0,0.0,98,0.00,,,1.08,Weather View 32 v70,2013-08-13 01:00:00,
2013-08-12 21:05:00,67.6,67.0,29.79,West,273,0.0,0.0,98,0.00,,,1.08,Weather View 32 v70,2013-08-13 01:05:00,
2013-08-12 21:10:00,67.2,66.6,29.80,West,273,0.0,1.0,98,0.00,,,1.08,Weather View 32 v70,2013-08-13 01:10:00,
2013-08-12 21:15:00,66.6,65.7,29.80,West,273,0.0,1.0,97,0.01,,,1.09,Weather View 32 v70,2013-08-13 01:15:00,
2013-08-12 21:20:00,66.1,65.2,29.79,West,273,0.0,1.0,97,0.01,,,1.09,Weather View 32 v70,2013-08-13 01:20:00,
2013-08-12 21:25:00,65.8,64.9,29.79,West,273,0.0,1.0,97,0.01,,,1.09,Weather View 32 v70,2013-08-13 01:25:00,
2013-08-12 21:30:00,65.6,64.7,29.78,West,273,0.0,1.0,97,0.01,,,1.09,Weather View 32 v70,2013-08-13 01:30:00,
2013-08-12 21:35:00,65.5,64.6,29.78,West,273,0.0,1.0,97,0.01,,,1.09,Weather View 32 v70,2013-08-13 01:35:00,
2013-08-12 21:40:00,65.4,64.8,29.79,West,273,0.0,1.0,98,0.01,,,1.09,Weather View 32 v70,2013-08-13 01:40:00,
2013-08-12 21:45:00,65.3,64.7,29.80,West,273,0.0,1.0,98,0.01,,,1.09,Weather View 32 v70,2013-08-13 01:45:00,
2013-08-12 21:50:00,65.2,64.6,29.80,West,273,0.0,1.0,98,0.01,,,1.09,Weather View 32 v70,2013-08-13 01:50:00,
2013-08-12 21:55:00,65.3,64.7,29.80,West,273,0.0,1.0,98,0.01,,,1.09,Weather View 32 v70,2013-08-13 01:55:00,
2013-08-12 22:00:00,65.3,64.7,29.80,West,273,0.0,1.0,98,0.01,,,1.09,Weather View 32 v70,2013-08-13 02:00:00,
2013-08-12 22:05:00,65.3,64.7,29.80,West,273,0.0,1.0,98,0.01,,,1.09,Weather View 32 v70,2013-08-13 02:05:00,
2013-08-12 22:10:00,65.3,64.7,29.80,West,273,0.0,0.0,98,0.01,,,1.09,Weather View 32 v70,2013-08-13 02:10:00,
2013-08-12 22:15:00,65.2,64.6,29.79,West,273,0.0,0.0,98,0.00,,,1.09,Weather View 32 v70,2013-08-13 02:15:00,
2013-08-12 22:20:00,65.2,64.6,29.79,West,273,0.0,0.0,98,0.00,,,1.09,Weather View 32 v70,2013-08-13 02:20:00,
2013-08-12 22:25:00,65.1,64.5,29.79,West,273,0.0,0.0,98,0.00,,,1.09,Weather View 32 v70,2013-08-13 02:25:00,
2013-08-12 22:30:00,65.0,64.4,29.79,West,273,0.0,0.0,98,0.00,,,1.09,Weather View 32 v70,2013-08-13 02:30:00,
2013-08-12 22:35:00,65.0,64.4,29.80,West,273,0.0,0.0,98,0.00,,,1.09,Weather View 32 v70,2013-08-13 02:35:00,
2013-08-12 22:40:00,65.0,64.7,29.80,West,273,0.0,0.0,99,0.00,,,1.09,Weather View 32 v70,2013-08-13 02:40:00,
2013-08-12 22:45:00,65.0,64.7,29.79,West,273,0.0,0.0,99,0.00,,,1.09,Weather View 32 v70,2013-08-13 02:45:00,
2013-08-12 22:50:00,64.9,64.6,29.79,West,273,0.0,0.0,99,0.00,,,1.09,Weather View 32 v70,2013-08-13 02:50:00,
2013-08-12 22:55:00,64.9,64.6,29.79,West,273,0.0,0.0,99,0.00,,,1.09,Weather View 32 v70,2013-08-13 02:55:00,
2013-08-12 23:00:00,64.9,64.6,29.79,West,273,0.0,0.0,99,0.02,,,1.11,Weather View 32 v70,2013-08-13 03:00:00,
2013-08-12 23:05:00,64.9,64.6,29.78,West,273,0.0,0.0,99,0.02,,,1.11,Weather View 32 v70,2013-08-13 03:05:00,
2013-08-12 23:10:00,64.9,64.6,29.78,West,273,0.0,0.0,99,0.02,,,1.11,Weather View 32 v70,2013-08-13 03:10:00,
2013-08-12 23:15:00,64.9,64.6,29.78,West,273,0.0,0.0,99,0.02,,,1.11,Weather View 32 v70,2013-08-13 03:15:00,
2013-08-12 23:20:00,64.8,64.5,29.78,West,273,0.0,0.0,99,0.02,,,1.11,Weather View 32 v70,2013-08-13 03:20:00,
2013-08-12 23:25:00,64.8,64.5,29.78,West,273,0.0,0.0,99,0.02,,,1.11,Weather View 32 v70,2013-08-13 03:25:00,
2013-08-12 23:30:00,64.8,64.5,29.78,West,273,0.0,0.0,99,0.02,,,1.11,Weather View 32 v70,2013-08-13 03:30:00,
2013-08-12 23:35:00,64.8,64.5,29.78,West,273,0.0,0.0,99,0.02,,,1.11,Weather View 32 v70,2013-08-13 03:35:00,
2013-08-12 23:40:00,64.8,64.5,29.79,West,273,0.0,1.0,99,0.02,,,1.11,Weather View 32 v70,2013-08-13 03:40:00,
2013-08-12 23:45:00,64.8,64.5,29.80,West,273,0.0,1.0,99,0.03,,,1.12,Weather View 32 v70,2013-08-13 03:45:00,
2013-08-12 23:53:00,64.7,64.4,29.79,West,273,0.0,1.0,99,0.03,,,1.12,Weather View 32 v70,2013-08-13 03:53:00,
2013-08-12 23:58:00,64.7,64.4,29.79,West,273,0.0,1.0,99,-1.11,,,0.00,Weather View 32 v70,2013-08-13 03:58:00,